createdAt,value
2017-08-28T00:00:17.183Z,16.30
2017-08-28T00:02:48.384Z,16.32
2017-08-28T00:05:18.591Z,16.32
2017-08-28T00:07:48.990Z,16.33
2017-08-28T00:10:18.770Z,16.27
2017-08-28T00:12:48.658Z,16.30
2017-08-28T00:15:17.807Z,16.24
2017-08-28T00:17:47.870Z,16.26
2017-08-28T00:20:17.501Z,16.22
2017-08-28T00:22:47.930Z,16.21
2017-08-28T00:25:17.258Z,16.15
2017-08-28T00:27:47.821Z,16.11
2017-08-28T00:30:17.317Z,16.06
2017-08-28T00:32:48.132Z,16.09
2017-08-28T00:35:18.065Z,16.10
2017-08-28T00:37:48.027Z,16.05
2017-08-28T00:40:17.742Z,16.00
2017-08-28T00:42:48.278Z,15.97
2017-08-28T00:45:17.750Z,15.96
2017-08-28T00:47:48.128Z,15.47
2017-08-28T00:50:17.998Z,15.39
2017-08-28T00:52:49.535Z,15.58
2017-08-28T00:55:19.014Z,15.57
2017-08-28T00:57:48.769Z,15.09
2017-08-28T01:00:17.910Z,15.08
2017-08-28T01:02:47.655Z,14.77
2017-08-28T01:05:17.552Z,14.78
2017-08-28T01:07:48.006Z,15.08
2017-08-28T01:10:17.496Z,14.62
2017-08-28T01:12:47.612Z,14.49
2017-08-28T01:15:16.859Z,14.67
2017-08-28T01:17:47.378Z,14.30
2017-08-28T01:20:17.037Z,14.22
2017-08-28T01:22:47.789Z,14.36
2017-08-28T01:25:17.271Z,14.62
2017-08-28T01:27:48.163Z,14.93
2017-08-28T01:30:17.633Z,15.16
2017-08-28T01:32:47.358Z,15.21
2017-08-28T01:35:17.077Z,15.29
2017-08-28T01:37:48.083Z,15.32
2017-08-28T01:40:17.507Z,15.29
2017-08-28T01:42:48.377Z,15.27
2017-08-28T01:45:25.833Z,15.21
2017-08-28T01:47:55.714Z,14.60
2017-08-28T01:50:25.247Z,14.84
2017-08-28T01:52:54.462Z,15.00
2017-08-28T01:55:24.139Z,15.04
2017-08-28T01:57:53.558Z,15.13
2017-08-28T02:00:22.727Z,15.15
2017-08-28T02:02:52.446Z,15.14
2017-08-28T02:05:21.870Z,15.11
2017-08-28T02:07:51.364Z,15.08
2017-08-28T02:10:20.975Z,15.08
2017-08-28T02:12:50.186Z,15.06
2017-08-28T02:15:19.790Z,15.07
2017-08-28T02:17:49.278Z,15.04
2017-08-28T02:20:18.784Z,15.00
2017-08-28T02:22:48.258Z,14.99
2017-08-28T02:25:17.579Z,15.02
2017-08-28T02:27:47.442Z,15.02
2017-08-28T02:30:16.786Z,14.96
2017-08-28T02:32:47.557Z,14.84
2017-08-28T02:35:17.129Z,14.88
2017-08-28T02:37:47.385Z,14.85
2017-08-28T02:40:16.750Z,14.85
2017-08-28T02:42:47.834Z,14.75
2017-08-28T02:45:17.300Z,14.71
2017-08-28T02:47:47.743Z,14.63
2017-08-28T02:52:51.003Z,14.59
2017-08-28T02:55:20.724Z,14.61
2017-08-28T02:57:50.184Z,14.62
2017-08-28T03:00:20.284Z,14.60
2017-08-28T03:02:50.188Z,14.60
2017-08-28T03:05:19.868Z,14.62
2017-08-28T03:07:51.034Z,14.60
2017-08-28T03:10:21.154Z,14.60
2017-08-28T03:12:50.594Z,14.60
2017-08-28T03:15:20.067Z,14.58
2017-08-28T03:17:49.789Z,14.58
2017-08-28T03:20:19.316Z,14.50
2017-08-28T03:22:51.958Z,14.54
2017-08-28T03:25:22.887Z,14.54
2017-08-28T03:27:52.215Z,14.55
2017-08-28T03:30:21.609Z,14.53
2017-08-28T03:32:51.135Z,14.51
2017-08-28T03:35:20.597Z,14.49
2017-08-28T03:37:50.218Z,14.48
2017-08-28T03:40:19.915Z,14.49
2017-08-28T03:42:49.332Z,14.43
2017-08-28T03:45:18.852Z,14.46
2017-08-28T03:47:48.950Z,14.44
2017-08-28T03:50:18.366Z,14.46
2017-08-28T03:52:48.564Z,14.45
2017-08-28T03:55:18.138Z,14.44
2017-08-28T03:57:47.937Z,14.34
2017-08-28T04:00:17.399Z,14.32
2017-08-28T04:02:47.283Z,14.32
2017-08-28T04:05:16.531Z,14.28
2017-08-28T04:07:48.333Z,14.17
2017-08-28T04:10:19.422Z,14.17
2017-08-28T04:12:51.574Z,14.16
2017-08-28T04:15:20.937Z,14.16
2017-08-28T04:17:50.186Z,14.13
2017-08-28T04:20:19.982Z,13.97
2017-08-28T04:22:49.284Z,14.00
2017-08-28T04:25:18.617Z,13.94
2017-08-28T04:27:49.455Z,13.93
2017-08-28T04:30:18.882Z,13.92
2017-08-28T04:32:50.182Z,13.92
2017-08-28T04:35:19.890Z,13.89
2017-08-28T04:38:00.247Z,13.92
2017-08-28T04:40:33.588Z,13.93
2017-08-28T04:43:03.039Z,13.92
2017-08-28T04:45:33.927Z,13.87
2017-08-28T04:48:05.998Z,13.86
2017-08-28T04:50:35.214Z,13.84
2017-08-28T04:53:04.448Z,13.88
2017-08-28T04:55:34.263Z,13.88
2017-08-28T04:58:03.510Z,13.86
2017-08-28T05:00:32.809Z,13.88
2017-08-28T05:03:02.568Z,13.91
2017-08-28T05:05:31.727Z,13.94
2017-08-28T05:08:00.881Z,13.98
2017-08-28T05:10:30.655Z,14.01
2017-08-28T05:13:00.193Z,14.04
2017-08-28T05:15:29.550Z,14.03
2017-08-28T05:17:59.189Z,14.01
2017-08-28T05:20:28.454Z,13.94
2017-08-28T05:22:58.264Z,13.95
2017-08-28T05:25:27.764Z,14.00
2017-08-28T05:27:57.020Z,14.07
2017-08-28T05:30:26.187Z,14.09
2017-08-28T05:32:55.642Z,14.11
2017-08-28T05:35:25.035Z,14.16
2017-08-28T05:37:55.112Z,14.17
2017-08-28T05:42:46.240Z,14.29
2017-08-28T05:45:15.618Z,14.37
2017-08-28T05:47:47.125Z,14.42
2017-08-28T05:50:16.386Z,14.45
2017-08-28T05:52:46.535Z,14.51
2017-08-28T05:55:16.059Z,14.48
2017-08-28T05:57:46.278Z,14.42
2017-08-28T06:00:15.768Z,14.33
2017-08-28T06:02:47.074Z,14.21
2017-08-28T06:05:16.467Z,14.51
2017-08-28T06:07:46.747Z,14.61
2017-08-28T06:10:16.263Z,14.58
2017-08-28T06:12:46.415Z,14.75
2017-08-28T06:15:15.602Z,14.49
2017-08-28T06:17:46.514Z,14.62
2017-08-28T06:20:15.695Z,14.73
2017-08-28T06:22:45.895Z,14.69
2017-08-28T06:25:15.355Z,14.61
2017-08-28T06:27:45.618Z,14.58
2017-08-28T06:30:14.986Z,14.87
2017-08-28T06:32:45.814Z,14.80
2017-08-28T06:35:15.064Z,15.13
2017-08-28T06:37:46.004Z,14.93
2017-08-28T06:40:15.479Z,14.93
2017-08-28T06:42:46.266Z,14.94
2017-08-28T06:45:15.471Z,15.08
2017-08-28T06:47:47.333Z,15.16
2017-08-28T06:50:16.586Z,15.34
2017-08-28T06:52:47.499Z,15.42
2017-08-28T06:55:17.203Z,15.52
2017-08-28T06:57:47.167Z,15.54
2017-08-28T07:00:16.331Z,15.82
2017-08-28T07:02:47.607Z,15.83
2017-08-28T07:05:16.791Z,15.79
2017-08-28T07:07:49.060Z,15.81
2017-08-28T07:10:18.506Z,15.82
2017-08-28T07:12:47.720Z,15.93
2017-08-28T07:15:16.871Z,16.31
2017-08-28T07:17:49.344Z,16.81
2017-08-28T07:20:18.923Z,16.75
2017-08-28T07:22:48.726Z,16.45
2017-08-28T07:25:18.471Z,16.52
2017-08-28T07:27:47.676Z,17.20
2017-08-28T07:30:21.370Z,17.32
2017-08-28T07:32:51.261Z,17.82
2017-08-28T07:35:20.510Z,18.29
2017-08-28T07:37:49.670Z,17.98
2017-08-28T07:40:19.298Z,17.73
2017-08-28T07:42:52.820Z,17.94
2017-08-28T07:45:21.979Z,17.70
2017-08-28T07:47:51.471Z,18.45
2017-08-28T07:50:20.729Z,18.54
2017-08-28T07:52:49.894Z,18.99
2017-08-28T07:55:19.423Z,18.90
2017-08-28T07:57:48.630Z,19.52
2017-08-28T08:00:17.950Z,19.35
2017-08-28T08:02:48.109Z,19.61
2017-08-28T08:05:17.331Z,19.15
2017-08-28T08:07:47.982Z,18.70
2017-08-28T08:10:17.556Z,19.67
2017-08-28T08:12:47.490Z,19.69
2017-08-28T08:15:16.787Z,19.43
2017-08-28T08:17:47.855Z,20.13
2017-08-28T08:20:17.287Z,20.55
2017-08-28T08:22:47.475Z,20.54
2017-08-28T08:25:16.939Z,20.68
2017-08-28T08:27:47.927Z,20.73
2017-08-28T08:30:17.106Z,20.72
2017-08-28T08:32:47.535Z,20.30
2017-08-28T08:35:16.735Z,19.36
2017-08-28T08:37:47.833Z,19.25
2017-08-28T08:40:17.355Z,20.25
2017-08-28T08:42:48.257Z,19.81
2017-08-28T08:45:17.455Z,20.42
2017-08-28T08:47:48.376Z,20.22
2017-08-28T08:50:17.726Z,20.06
2017-08-28T08:52:47.815Z,20.06
2017-08-28T08:55:17.365Z,20.65
2017-08-28T08:57:47.670Z,21.48
2017-08-28T09:00:16.928Z,20.55
2017-08-28T09:02:48.126Z,21.16
2017-08-28T09:05:17.578Z,21.64
2017-08-28T09:07:48.487Z,21.59
2017-08-28T09:10:18.530Z,20.91
2017-08-28T09:12:47.802Z,21.71
2017-08-28T09:15:17.233Z,20.99
2017-08-28T09:17:47.678Z,22.34
2017-08-28T09:20:17.306Z,21.83
2017-08-28T09:22:47.350Z,22.31
2017-08-28T09:25:16.825Z,22.63
2017-08-28T09:27:47.251Z,21.73
2017-08-28T09:30:16.448Z,22.48
2017-08-28T09:32:48.920Z,21.64
2017-08-28T09:35:18.086Z,21.98
2017-08-28T09:37:47.698Z,21.54
2017-08-28T09:40:17.155Z,22.18
2017-08-28T09:42:47.316Z,22.28
2017-08-28T09:45:16.595Z,22.57
2017-08-28T09:47:48.028Z,23.03
2017-08-28T09:50:17.358Z,22.06
2017-08-28T09:52:46.767Z,22.99
2017-08-28T09:55:16.844Z,23.57
2017-08-28T09:57:47.855Z,22.55
2017-08-28T10:00:17.055Z,23.41
2017-08-28T10:02:47.394Z,22.47
2017-08-28T10:05:16.573Z,22.29
2017-08-28T10:07:49.050Z,23.55
2017-08-28T10:10:18.712Z,21.51
2017-08-28T10:12:47.934Z,22.83
2017-08-28T10:15:17.303Z,22.67
2017-08-28T10:17:52.810Z,23.35
2017-08-28T10:20:22.086Z,22.65
2017-08-28T10:23:00.777Z,23.14
2017-08-28T10:25:32.651Z,23.71
2017-08-28T10:28:03.253Z,23.24
2017-08-28T10:30:33.500Z,23.82
2017-08-28T10:33:02.717Z,24.22
2017-08-28T10:35:51.801Z,24.56
2017-08-28T10:38:21.020Z,23.65
2017-08-28T10:40:50.526Z,22.87
2017-08-28T10:43:19.695Z,23.35
2017-08-28T10:45:49.539Z,22.59
2017-08-28T10:48:19.090Z,22.26
2017-08-28T10:50:48.435Z,22.36
2017-08-28T10:53:17.606Z,21.79
2017-08-28T10:55:47.730Z,22.39
2017-08-28T10:58:16.887Z,22.38
2017-08-28T11:00:46.941Z,23.54
2017-08-28T11:03:16.370Z,22.64
2017-08-28T11:05:46.632Z,23.62
2017-08-28T11:08:15.868Z,25.18
2017-08-28T11:10:46.734Z,23.96
2017-08-28T11:13:15.938Z,22.97
2017-08-28T11:15:46.271Z,23.14
2017-08-28T11:18:15.758Z,22.86
2017-08-28T11:20:48.189Z,23.29
2017-08-28T11:23:17.617Z,24.03
2017-08-28T11:25:48.247Z,23.93
2017-08-28T11:28:17.447Z,24.25
2017-08-28T11:30:48.142Z,23.61
2017-08-28T11:33:17.415Z,23.28
2017-08-28T11:35:47.204Z,24.16
2017-08-28T11:38:16.657Z,24.18
2017-08-28T11:40:47.890Z,24.81
2017-08-28T11:43:17.095Z,25.38
2017-08-28T11:45:47.368Z,26.21
2017-08-28T11:48:16.731Z,25.57
2017-08-28T11:50:47.331Z,25.78
2017-08-28T11:53:16.910Z,23.69
2017-08-28T11:55:47.231Z,23.93
2017-08-28T11:58:16.455Z,23.66
2017-08-28T12:00:47.182Z,23.23
2017-08-28T12:03:16.314Z,23.85
2017-08-28T12:05:46.914Z,23.92
2017-08-28T12:08:16.374Z,22.97
2017-08-28T12:10:47.278Z,22.84
2017-08-28T12:13:16.496Z,23.70
2017-08-28T12:15:47.258Z,22.57
2017-08-28T12:18:16.450Z,22.80
2017-08-28T12:20:46.698Z,22.55
2017-08-28T12:23:16.422Z,24.12
2017-08-28T12:25:46.475Z,25.54
2017-08-28T12:28:15.668Z,25.25
2017-08-28T12:30:46.760Z,24.86
2017-08-28T12:33:16.096Z,24.25
2017-08-28T12:35:47.128Z,25.04
2017-08-28T12:38:16.742Z,25.49
2017-08-28T12:40:47.854Z,25.23
2017-08-28T12:43:17.302Z,25.00
2017-08-28T12:45:48.306Z,25.26
2017-08-28T12:48:17.486Z,25.53
2017-08-28T12:50:47.101Z,25.24
2017-08-28T12:53:16.598Z,25.87
2017-08-28T12:55:47.239Z,26.00
2017-08-28T12:58:16.427Z,27.19
2017-08-28T13:00:45.926Z,26.91
2017-08-28T13:03:15.179Z,27.38
2017-08-28T13:05:45.342Z,25.24
2017-08-28T13:08:15.166Z,26.13
2017-08-28T13:10:45.507Z,26.17
2017-08-28T13:13:14.879Z,26.16
2017-08-28T13:15:46.577Z,24.11
2017-08-28T13:18:15.883Z,23.56
2017-08-28T13:20:46.583Z,25.23
2017-08-28T13:23:16.367Z,25.79
2017-08-28T13:25:47.114Z,25.79
2017-08-28T13:28:16.446Z,24.03
2017-08-28T13:30:46.166Z,25.09
2017-08-28T13:33:15.350Z,23.28
2017-08-28T13:35:44.662Z,23.33
2017-08-28T13:38:14.097Z,23.81
2017-08-28T13:40:45.086Z,24.68
2017-08-28T13:43:14.274Z,24.07
2017-08-28T13:45:45.134Z,24.91
2017-08-28T13:48:14.471Z,23.82
2017-08-28T13:50:45.267Z,23.57
2017-08-28T13:53:14.857Z,23.34
2017-08-28T13:55:47.215Z,23.40
2017-08-28T13:58:16.866Z,23.27
2017-08-28T14:00:50.893Z,23.18
2017-08-28T14:03:22.693Z,23.32
2017-08-28T14:05:51.958Z,23.22
2017-08-28T14:08:21.581Z,23.16
2017-08-28T14:10:50.866Z,23.57
2017-08-28T14:13:20.302Z,24.72
2017-08-28T14:15:50.058Z,23.81
2017-08-28T14:18:19.224Z,23.83
2017-08-28T14:23:45.235Z,24.28
2017-08-28T14:26:14.601Z,24.28
2017-08-28T14:28:46.975Z,23.76
2017-08-28T14:31:16.390Z,24.13
2017-08-28T14:33:45.903Z,23.97
2017-08-28T14:36:15.157Z,23.71
2017-08-28T14:38:46.147Z,24.34
2017-08-28T14:41:15.635Z,24.44
2017-08-28T14:43:44.790Z,23.77
2017-08-28T14:46:13.948Z,23.24
2017-08-28T14:48:43.390Z,23.83
2017-08-28T14:51:14.397Z,24.04
2017-08-28T14:53:45.878Z,23.84
2017-08-28T14:56:15.304Z,24.17
2017-08-28T14:58:44.458Z,23.87
2017-08-28T15:01:13.614Z,24.17
2017-08-28T15:03:46.643Z,23.62
2017-08-28T15:06:16.091Z,23.39
2017-08-28T15:08:45.313Z,23.43
2017-08-28T15:11:14.887Z,23.39
2017-08-28T15:13:47.486Z,23.56
2017-08-28T15:16:16.639Z,23.38
2017-08-28T15:18:48.343Z,23.42
2017-08-28T15:21:17.610Z,23.44
2017-08-28T15:23:47.640Z,23.54
2017-08-28T15:26:17.170Z,23.31
2017-08-28T15:28:46.400Z,24.12
2017-08-28T15:31:15.575Z,24.26
2017-08-28T15:33:45.035Z,24.03
2017-08-28T15:36:14.326Z,23.92
2017-08-28T15:38:44.995Z,23.71
2017-08-28T15:41:14.546Z,23.88
2017-08-28T15:43:43.675Z,23.84
2017-08-28T15:46:12.874Z,23.53
2017-08-28T15:48:42.351Z,23.34
2017-08-28T15:51:11.730Z,23.27
2017-08-28T15:53:40.890Z,23.36
2017-08-28T15:56:10.403Z,23.79
2017-08-28T15:58:39.616Z,23.33
2017-08-28T16:01:08.782Z,23.24
2017-08-28T16:03:38.267Z,23.47
2017-08-28T16:06:07.454Z,23.52
2017-08-28T16:08:36.612Z,23.40
2017-08-28T16:11:06.151Z,23.29
2017-08-28T16:13:38.450Z,23.39
2017-08-28T16:16:09.011Z,23.15
2017-08-28T16:18:39.614Z,23.26
2017-08-28T16:21:09.079Z,23.49
2017-08-28T16:23:38.245Z,23.72
2017-08-28T16:26:07.811Z,23.50
2017-08-28T16:28:37.018Z,23.51
2017-08-28T16:31:07.554Z,23.51
2017-08-28T16:33:37.030Z,23.32
2017-08-28T16:36:06.466Z,22.98
2017-08-28T16:38:35.644Z,23.03
2017-08-28T16:41:05.118Z,23.07
2017-08-28T16:43:34.316Z,22.97
2017-08-28T16:46:03.774Z,22.93
2017-08-28T16:48:33.243Z,23.27
2017-08-28T16:51:02.486Z,23.01
2017-08-28T16:53:31.664Z,23.08
2017-08-28T16:56:01.234Z,22.93
2017-08-28T16:58:30.394Z,22.72
2017-08-28T17:00:59.575Z,22.71
2017-08-28T17:03:29.115Z,22.85
2017-08-28T17:05:58.340Z,22.69
2017-08-28T17:08:28.823Z,22.72
2017-08-28T17:10:58.339Z,22.68
2017-08-28T17:13:27.490Z,22.86
2017-08-28T17:15:56.654Z,22.84
2017-08-28T17:18:26.226Z,23.11
2017-08-28T17:20:55.467Z,23.16
2017-08-28T17:23:25.442Z,23.21
2017-08-28T17:25:54.908Z,23.32
2017-08-28T17:28:24.180Z,22.95
2017-08-28T17:30:53.326Z,22.67
2017-08-28T17:33:22.816Z,22.65
2017-08-28T17:35:51.991Z,22.12
2017-08-28T17:38:21.134Z,22.02
2017-08-28T17:40:51.071Z,21.81
2017-08-28T17:43:20.510Z,21.67
2017-08-28T17:45:50.086Z,21.81
2017-08-28T17:48:19.711Z,21.59
2017-08-28T17:50:48.954Z,21.51
2017-08-28T17:53:18.134Z,21.55
2017-08-28T17:55:47.666Z,21.48
2017-08-28T17:58:17.039Z,21.25
2017-08-28T18:00:50.607Z,21.39
2017-08-28T18:03:20.262Z,21.35
2017-08-28T18:05:49.723Z,20.95
2017-08-28T18:08:18.887Z,21.10
2017-08-28T18:10:48.655Z,20.71
2017-08-28T18:13:17.924Z,20.71
2017-08-28T18:15:47.951Z,20.76
2017-08-28T18:18:17.526Z,20.79
2017-08-28T18:20:48.833Z,20.78
2017-08-28T18:23:17.978Z,20.75
2017-08-28T18:25:48.421Z,20.88
2017-08-28T18:28:17.684Z,20.90
2017-08-28T18:30:47.266Z,20.84
2017-08-28T18:33:17.203Z,20.81
2017-08-28T18:35:48.115Z,20.81
2017-08-28T18:38:17.295Z,20.76
2017-08-28T18:40:48.107Z,20.80
2017-08-28T18:43:17.374Z,20.73
2017-08-28T18:45:47.523Z,20.67
2017-08-28T18:48:17.039Z,20.59
2017-08-28T18:50:48.051Z,20.56
2017-08-28T18:53:17.346Z,20.46
2017-08-28T18:55:48.077Z,20.40
2017-08-28T18:58:17.414Z,20.29
2017-08-28T19:00:48.363Z,20.21
2017-08-28T19:03:17.847Z,20.16
2017-08-28T19:05:47.835Z,20.18
2017-08-28T19:08:17.034Z,20.09
2017-08-28T19:10:49.811Z,20.03
2017-08-28T19:13:19.077Z,19.88
2017-08-28T19:15:48.418Z,19.83
2017-08-28T19:18:19.369Z,19.77
2017-08-28T19:20:48.651Z,19.78
2017-08-28T19:23:17.986Z,19.69
2017-08-28T19:25:48.028Z,19.63
2017-08-28T19:28:17.296Z,19.54
2017-08-28T19:30:48.706Z,19.49
2017-08-28T19:33:18.207Z,19.44
2017-08-28T19:35:47.467Z,19.36
2017-08-28T19:38:16.831Z,19.23
2017-08-28T19:40:48.374Z,19.28
2017-08-28T19:43:18.153Z,19.14
2017-08-28T19:45:48.463Z,19.12
2017-08-28T19:48:18.232Z,19.04
2017-08-28T19:50:47.670Z,18.85
2017-08-28T19:53:16.846Z,18.88
2017-08-28T19:55:46.627Z,19.02
2017-08-28T19:58:15.807Z,18.89
2017-08-28T20:00:47.307Z,18.88
2017-08-28T20:03:17.007Z,18.66
2017-08-28T20:05:49.265Z,18.68
2017-08-28T20:08:19.014Z,18.65
2017-08-28T20:10:48.883Z,18.37
2017-08-28T20:13:18.141Z,18.27
2017-08-28T20:15:48.480Z,18.40
2017-08-28T20:18:17.839Z,18.51
2017-08-28T20:20:47.963Z,18.57
2017-08-28T20:23:17.653Z,18.50
2017-08-28T20:25:48.183Z,18.51
2017-08-28T20:28:21.879Z,18.36
2017-08-28T20:30:51.913Z,18.31
2017-08-28T20:33:23.633Z,18.34
2017-08-28T20:35:52.837Z,18.16
2017-08-28T20:38:22.826Z,17.58
2017-08-28T20:40:52.051Z,17.48
2017-08-28T20:43:21.243Z,17.46
2017-08-28T20:45:50.743Z,17.31
2017-08-28T20:48:20.087Z,17.01
2017-08-28T20:50:49.478Z,17.34
2017-08-28T20:53:19.037Z,16.68
2017-08-28T20:55:48.631Z,16.71
2017-08-28T20:58:17.889Z,16.48
2017-08-28T21:00:47.418Z,16.69
2017-08-28T21:03:16.559Z,16.92
2017-08-28T21:05:47.346Z,16.58
2017-08-28T21:08:17.017Z,16.67
2017-08-28T21:10:48.166Z,16.71
2017-08-28T21:13:17.521Z,16.88
2017-08-28T21:15:48.847Z,16.53
2017-08-28T21:18:18.002Z,16.65
2017-08-28T21:20:47.150Z,16.51
2017-08-28T21:23:16.617Z,16.66
2017-08-28T21:25:47.762Z,16.90
2017-08-28T21:28:16.994Z,16.98
2017-08-28T21:30:46.468Z,16.06
2017-08-28T21:33:15.819Z,16.42
2017-08-28T21:35:46.971Z,16.35
2017-08-28T21:38:16.546Z,16.09
2017-08-28T21:40:45.761Z,16.41
2017-08-28T21:43:14.908Z,16.10
2017-08-28T21:45:46.816Z,16.10
2017-08-28T21:48:16.139Z,16.33
2017-08-28T21:50:47.006Z,16.23
2017-08-28T21:53:16.669Z,16.08
2017-08-28T21:55:49.470Z,16.32
2017-08-28T21:58:20.094Z,16.28
2017-08-28T22:00:49.312Z,16.31
2017-08-28T22:03:18.522Z,16.27
2017-08-28T22:05:48.134Z,16.06
2017-08-28T22:08:17.315Z,16.32
2017-08-28T22:10:47.634Z,16.25
2017-08-28T22:13:17.090Z,16.17
2017-08-28T22:15:47.929Z,15.93
2017-08-28T22:18:17.147Z,16.19
2017-08-28T22:20:50.180Z,16.20
2017-08-28T22:23:19.343Z,16.31
2017-08-28T22:25:48.527Z,16.24
2017-08-28T22:28:18.186Z,16.33
2017-08-28T22:30:48.351Z,16.10
2017-08-28T22:33:17.519Z,16.16
2017-08-28T22:35:48.215Z,16.14
2017-08-28T22:38:17.342Z,15.98
2017-08-28T22:40:48.290Z,15.85
2017-08-28T22:43:17.929Z,15.82
2017-08-28T22:45:48.106Z,15.47
2017-08-28T22:48:17.433Z,15.37
2017-08-28T22:50:47.947Z,15.37
2017-08-28T22:53:17.208Z,15.39
2017-08-28T22:55:47.622Z,15.18
2017-08-28T22:58:17.667Z,15.10
2017-08-28T23:00:48.063Z,15.20
2017-08-28T23:03:17.313Z,15.34
2017-08-28T23:05:48.404Z,15.24
2017-08-28T23:08:17.674Z,14.81
2017-08-28T23:10:48.211Z,15.33
2017-08-28T23:13:17.766Z,15.10
2017-08-28T23:15:50.249Z,15.46
2017-08-28T23:18:19.882Z,15.52
2017-08-28T23:20:49.802Z,15.31
2017-08-28T23:23:18.951Z,15.13
2017-08-28T23:25:48.434Z,15.28
2017-08-28T23:28:17.886Z,15.11
2017-08-28T23:30:48.046Z,14.95
2017-08-28T23:33:17.216Z,14.96
2017-08-28T23:35:48.171Z,14.91
2017-08-28T23:38:17.322Z,14.73
2017-08-28T23:40:49.359Z,14.82
2017-08-28T23:43:19.198Z,14.52
2017-08-28T23:45:48.450Z,14.56
2017-08-28T23:48:17.870Z,14.52
2017-08-28T23:50:48.223Z,14.59
2017-08-28T23:53:17.381Z,14.39
2017-08-28T23:55:48.310Z,14.47
2017-08-28T23:58:18.134Z,14.29
